PWSweather.com
Personal Weather Stations
Station Observations
KNVELKO7
Elko, NV 89801

Elko, NV 89801

Lat: 40.963233, Lon: -115.592836

Elevation: 5230

Station Type: WS-2812

Latest ConditionsUpdated 1:50:14 AM PST Sunday, Dec 21, 2014
Currently Today's Max Today's Min Today's Average
Temperature 38.5°F3.6°C 38.9°F3.8°C 36.5°F2.5°C 38.0°F3.3°C
Dew Point 35.8°F2.1°C 36.2°F2.3°C 34.1°F1.2°C 35.5°F1.9°C
Winds 10.9 mph SSW17.5 kmh SSW 17.5 mph WSW28.2 kmh WSW - 13.4 mph 21.6 kmh
Wind Gusts 16.1 mph25.9 kmh 20.4 mph32.8 kmh - -
Humidity 90% 91% 90% 91%
Pressure 30.05 in1017.6 mb 30.06 in1017.9 mb 30.03 in1016.9 mb -
Precipitation - 0.01 in0.3 mm - -
Hour Temp Dew Point Humidity Winds Wind Gusts Pressure Precip Precip Rate Daily Precip Total
01:50 AM 38.5°F3.6°C 35.8°F2.1°C 90% 10.9 mph SSW17.5 kmh SSW 16.1 mph25.9 kmh 30.05 in1017.6 mb 0.00 in0.0 mm 0.00 in/hr0.0 mm/hr 0.01 in0.3 mm
01:45 AM 38.7°F3.7°C 36.0°F2.2°C 90% 14.4 mph S23.2 kmh S 20.4 mph32.8 kmh 30.05 in1017.6 mb 0.00 in0.0 mm 0.00 in/hr0.0 mm/hr 0.01 in0.3 mm
01:40 AM 38.9°F3.8°C 36.2°F2.3°C 90% 13.1 mph S21.1 kmh S 20.4 mph32.8 kmh 30.05 in1017.6 mb 0.00 in0.0 mm 0.00 in/hr0.0 mm/hr 0.01 in0.3 mm
01:35 AM 38.9°F3.8°C 36.2°F2.3°C 90% 15.9 mph SW25.6 kmh SW 17.9 mph28.8 kmh 30.06 in1017.9 mb 0.00 in0.0 mm 0.00 in/hr0.0 mm/hr 0.01 in0.3 mm
01:30 AM 38.7°F3.7°C 36.0°F2.2°C 90% 15.4 mph SW24.8 kmh SW 17.9 mph28.8 kmh 30.05 in1017.6 mb 0.00 in0.0 mm 0.00 in/hr0.0 mm/hr 0.01 in0.3 mm
01:24 AM 38.5°F3.6°C 36.1°F2.3°C 91% 11.5 mph SW18.5 kmh SW 15.7 mph25.3 kmh 30.05 in1017.6 mb 0.00 in0.0 mm 0.00 in/hr0.0 mm/hr 0.01 in0.3 mm
01:19 AM 38.5°F3.6°C 36.1°F2.3°C 91% 12.9 mph SW20.8 kmh SW 17.2 mph27.7 kmh 30.03 in1016.9 mb 0.00 in0.0 mm 0.00 in/hr0.0 mm/hr 0.01 in0.3 mm
01:14 AM 38.5°F3.6°C 36.1°F2.3°C 91% 16.8 mph SW27.0 kmh SW 17.2 mph27.7 kmh 30.03 in1016.9 mb 0.00 in0.0 mm 0.00 in/hr0.0 mm/hr 0.01 in0.3 mm
01:09 AM 38.5°F3.6°C 35.8°F2.1°C 90% 15.4 mph WSW24.8 kmh WSW 16.8 mph27.0 kmh 30.04 in1017.3 mb 0.00 in0.0 mm 0.00 in/hr0.0 mm/hr 0.01 in0.3 mm
01:04 AM 38.5°F3.6°C 35.8°F2.1°C 90% 13.1 mph SW21.1 kmh SW 18.1 mph29.1 kmh 30.04 in1017.3 mb 0.00 in0.0 mm 0.00 in/hr0.0 mm/hr 0.01 in0.3 mm
01:00 AM 38.5°F3.6°C 35.8°F2.1°C 90% 12.5 mph SW20.1 kmh SW 18.1 mph29.1 kmh 30.03 in1016.9 mb 0.01 in0.3 mm 0.00 in/hr0.0 mm/hr 0.01 in0.3 mm
12:55 AM 38.5°F3.6°C 35.8°F2.1°C 90% 14.4 mph SW23.2 kmh SW 18.6 mph29.9 kmh 30.03 in1016.9 mb 0.01 in0.3 mm 0.00 in/hr0.0 mm/hr 0.01 in0.3 mm
12:50 AM 38.3°F3.5°C 35.6°F2.0°C 90% 14.6 mph SW23.5 kmh SW 18.6 mph29.9 kmh 30.03 in1016.9 mb 0.01 in0.3 mm 0.00 in/hr0.0 mm/hr 0.01 in0.3 mm
12:45 AM 38.2°F3.4°C 35.5°F1.9°C 90% 14.7 mph SW23.7 kmh SW 17.2 mph27.7 kmh 30.04 in1017.3 mb 0.01 in0.3 mm 0.00 in/hr0.0 mm/hr 0.01 in0.3 mm
12:40 AM 37.8°F3.2°C 35.4°F1.9°C 91% 13.6 mph SW21.9 kmh SW 18.8 mph30.3 kmh 30.04 in1017.3 mb 0.01 in0.3 mm 0.00 in/hr0.0 mm/hr 0.01 in0.3 mm
12:35 AM 37.8°F3.2°C 35.4°F1.9°C 91% 17.5 mph WSW28.2 kmh WSW 18.8 mph30.3 kmh 30.04 in1017.3 mb 0.01 in0.3 mm 0.00 in/hr0.0 mm/hr 0.01 in0.3 mm
12:30 AM 37.6°F3.1°C 35.2°F1.8°C 91% 13.2 mph SW21.2 kmh SW 16.1 mph25.9 kmh 30.04 in1017.3 mb 0.02 in0.5 mm 0.00 in/hr0.0 mm/hr 0.01 in0.3 mm
12:25 AM 37.4°F3.0°C 35.0°F1.7°C 91% 12.4 mph WSW20.0 kmh WSW 14.3 mph23.0 kmh 30.04 in1017.3 mb 0.02 in0.5 mm 0.00 in/hr0.0 mm/hr 0.01 in0.3 mm
12:20 AM 37.3°F2.9°C 34.8°F1.6°C 91% 10.9 mph W17.5 kmh W 13.4 mph21.6 kmh 30.04 in1017.3 mb 0.02 in0.5 mm 0.00 in/hr0.0 mm/hr 0.01 in0.3 mm
12:15 AM 36.9°F2.7°C 34.5°F1.4°C 91% 13.2 mph WSW21.2 kmh WSW 13.4 mph21.6 kmh 30.04 in1017.3 mb 0.02 in0.5 mm 0.00 in/hr0.0 mm/hr 0.01 in0.3 mm
12:10 AM 36.7°F2.6°C 34.3°F1.3°C 91% 9.3 mph WSW15.0 kmh WSW 15.0 mph24.1 kmh 30.03 in1016.9 mb 0.02 in0.5 mm 0.00 in/hr0.0 mm/hr 0.01 in0.3 mm
12:05 AM 36.7°F2.6°C 34.3°F1.3°C 91% 8.2 mph SW13.2 kmh SW 17.9 mph28.8 kmh 30.04 in1017.3 mb 0.03 in0.8 mm 0.12 in/hr3.0 mm/hr 0.01 in0.3 mm
12:00 AM 36.5°F2.5°C 34.1°F1.2°C 91% 14.1 mph SW22.7 kmh SW 17.9 mph28.8 kmh 30.04 in1017.3 mb 0.02 in0.5 mm 0.00 in/hr0.0 mm/hr 0.02 in0.5 mm